createdAt,value
2023-03-04T00:02:14.479Z,101258.81
2023-03-04T00:05:16.609Z,101258.88
2023-03-04T00:08:18.691Z,101256.94
2023-03-04T00:11:21.012Z,101251.19
2023-03-04T00:14:23.117Z,101244.44
2023-03-04T00:17:25.820Z,101243.06
2023-03-04T00:20:30.251Z,101251.78
2023-03-04T00:23:32.563Z,101239.16
2023-03-04T00:26:34.568Z,101242.47
2023-03-04T00:29:36.717Z,101240.19
2023-03-04T00:32:38.957Z,101236.44
2023-03-04T00:35:42.475Z,101233.28
2023-03-04T00:38:44.486Z,101228.72
2023-03-04T00:41:46.530Z,101224.78
2023-03-04T00:44:54.107Z,101197.22
2023-03-04T00:47:58.691Z,101205.34
2023-03-04T00:51:00.726Z,101205.50
2023-03-04T00:54:02.863Z,101210.72
2023-03-04T00:57:05.032Z,101205.47
2023-03-04T01:00:07.724Z,101204.41
2023-03-04T01:03:10.351Z,101206.13
2023-03-04T01:06:13.283Z,101189.63
2023-03-04T01:09:15.516Z,101186.41
2023-03-04T01:12:17.531Z,101174.72
2023-03-04T01:15:19.672Z,101181.22
2023-03-04T01:18:22.900Z,101175.50
2023-03-04T01:21:25.301Z,101166.34
2023-03-04T01:24:28.004Z,101157.72
2023-03-04T01:27:30.196Z,101174.47
2023-03-04T01:30:32.263Z,101168.38
2023-03-04T01:33:34.694Z,101169.06
2023-03-04T01:36:36.929Z,101164.00
2023-03-04T01:39:38.875Z,101167.69
2023-03-04T01:42:41.412Z,101167.03
2023-03-04T01:45:43.687Z,101156.09
2023-03-04T01:48:46.828Z,101143.59
2023-03-04T01:51:54.327Z,101144.09
2023-03-04T01:54:57.673Z,101142.56
2023-03-04T01:57:59.754Z,101147.44
2023-03-04T02:01:01.858Z,101134.59
2023-03-04T02:04:04.398Z,101131.50
2023-03-04T02:07:07.528Z,101137.34
2023-03-04T02:10:11.078Z,101137.69
2023-03-04T02:13:14.727Z,101123.16
2023-03-04T02:16:16.717Z,101124.94
2023-03-04T02:19:53.916Z,101133.53
2023-03-04T02:23:11.926Z,101125.84
2023-03-04T02:26:19.426Z,101125.81
2023-03-04T02:29:24.588Z,101113.34
2023-03-04T02:32:26.802Z,101114.50
2023-03-04T02:35:29.371Z,101113.81
2023-03-04T02:38:31.633Z,101119.41
2023-03-04T02:41:34.669Z,101114.84
2023-03-04T02:44:39.940Z,101114.50
2023-03-04T02:47:41.954Z,101094.91
2023-03-04T02:50:49.385Z,101102.03
2023-03-04T02:53:51.377Z,101103.97
2023-03-04T02:56:55.915Z,101094.97
2023-03-04T02:59:59.299Z,101071.25
2023-03-04T03:03:03.798Z,101081.91
2023-03-04T03:06:06.311Z,101072.38
2023-03-04T03:09:08.340Z,101073.94
2023-03-04T03:12:10.411Z,101056.31
2023-03-04T03:15:13.544Z,101067.69
2023-03-04T03:18:15.816Z,101051.41
2023-03-04T03:21:17.890Z,101057.88
2023-03-04T03:24:20.877Z,101050.41
2023-03-04T03:27:22.935Z,101048.03
2023-03-04T03:30:26.443Z,101046.19
2023-03-04T03:33:28.519Z,101031.13
2023-03-04T03:36:30.728Z,101028.97
2023-03-04T03:39:32.813Z,101035.66
2023-03-04T03:42:34.851Z,101028.31
2023-03-04T03:45:37.307Z,101018.84
2023-03-04T03:48:39.470Z,101020.00
2023-03-04T03:51:41.501Z,101015.31
2023-03-04T03:54:43.602Z,101022.91
2023-03-04T03:57:45.665Z,101038.56
2023-03-04T04:00:48.054Z,101040.44
2023-03-04T04:03:50.490Z,101039.91
2023-03-04T04:06:52.502Z,101034.22
2023-03-04T04:09:54.587Z,101022.94
2023-03-04T04:12:56.671Z,101016.38
2023-03-04T04:16:23.766Z,101023.47
2023-03-04T04:19:25.917Z,101023.41
2023-03-04T04:22:27.981Z,101019.41
2023-03-04T04:25:30.452Z,101023.91
2023-03-04T04:28:33.296Z,101019.78
2023-03-04T04:31:36.402Z,101013.66
2023-03-04T04:34:38.540Z,101006.41
2023-03-04T04:37:41.879Z,101009.31
2023-03-04T04:40:46.118Z,100997.22
2023-03-04T04:43:48.481Z,101003.78
2023-03-04T04:46:51.712Z,100996.63
2023-03-04T04:49:53.742Z,100999.19
2023-03-04T04:52:55.753Z,101003.00
2023-03-04T04:55:57.991Z,101013.66
2023-03-04T04:59:03.734Z,101028.47
2023-03-04T05:02:06.060Z,101013.47
2023-03-04T05:05:08.477Z,101021.53
2023-03-04T05:08:10.488Z,101018.69
2023-03-04T05:11:12.505Z,101025.91
2023-03-04T05:14:14.756Z,101015.16
2023-03-04T05:17:17.163Z,101022.53
2023-03-04T05:20:19.294Z,101012.25
2023-03-04T05:23:21.360Z,101021.34
2023-03-04T05:26:23.497Z,101013.97
2023-03-04T05:29:25.386Z,101008.44
2023-03-04T05:32:28.147Z,101016.03
2023-03-04T05:35:30.605Z,100991.97
2023-03-04T05:38:32.849Z,101021.84
2023-03-04T05:41:35.023Z,101007.28
2023-03-04T05:44:37.054Z,101011.84
2023-03-04T05:47:39.975Z,101011.84
2023-03-04T05:50:41.983Z,101013.16
2023-03-04T05:53:44.085Z,101007.09
2023-03-04T05:56:46.105Z,101009.13
2023-03-04T05:59:48.056Z,101011.06
2023-03-04T06:02:50.462Z,101007.00
2023-03-04T06:05:53.763Z,101011.56
2023-03-04T06:08:56.054Z,100983.88
2023-03-04T06:11:58.028Z,100998.06
2023-03-04T06:15:00.129Z,100993.94
2023-03-04T06:18:02.376Z,100992.81
2023-03-04T06:21:04.608Z,100982.50
2023-03-04T06:24:06.860Z,100977.94
2023-03-04T06:27:08.975Z,100966.09
2023-03-04T06:30:11.732Z,100973.22
2023-03-04T06:33:14.980Z,100974.44
2023-03-04T06:36:16.980Z,100979.13
2023-03-04T06:39:19.062Z,100972.69
2023-03-04T06:42:20.970Z,100950.69
2023-03-04T06:45:23.012Z,100961.78
2023-03-04T06:48:25.060Z,100959.53
2023-03-04T06:51:27.126Z,100961.75
2023-03-04T06:54:30.288Z,100959.75
2023-03-04T06:57:33.019Z,100959.25
2023-03-04T07:00:35.219Z,100944.31
2023-03-04T07:03:37.608Z,100958.72
2023-03-04T07:06:39.701Z,100945.03
2023-03-04T07:09:41.854Z,100925.69
2023-03-04T07:12:44.146Z,100915.88
2023-03-04T07:15:46.674Z,100931.13
2023-03-04T07:18:49.244Z,100927.63
2023-03-04T07:21:51.484Z,100919.84
2023-03-04T07:24:53.507Z,100905.47
2023-03-04T07:31:48.852Z,100901.25
2023-03-04T07:34:51.725Z,100909.75
2023-03-04T07:37:53.794Z,100904.72
2023-03-04T07:40:57.632Z,100913.22
2023-03-04T07:43:59.638Z,100895.66
2023-03-04T07:47:01.611Z,100899.28
2023-03-04T07:50:03.920Z,100884.97
2023-03-04T07:53:05.899Z,100887.09
2023-03-04T07:56:11.920Z,100897.75
2023-03-04T07:59:14.103Z,100874.16
2023-03-04T08:02:16.102Z,100876.16
2023-03-04T08:05:18.427Z,100881.31
2023-03-04T08:08:20.530Z,100880.00
2023-03-04T08:11:22.679Z,100865.59
2023-03-04T08:14:36.968Z,100856.19
2023-03-04T08:17:43.350Z,100856.09
2023-03-04T08:20:45.428Z,100862.81
2023-03-04T08:23:50.875Z,100862.16
2023-03-04T08:26:53.022Z,100867.28
2023-03-04T08:29:55.106Z,100846.28
2023-03-04T08:32:57.422Z,100843.56
2023-03-04T08:35:59.795Z,100840.69
2023-03-04T08:39:01.962Z,100833.81
2023-03-04T08:42:04.113Z,100827.06
2023-03-04T08:45:06.478Z,100816.63
2023-03-04T08:48:08.448Z,100821.22
2023-03-04T08:51:12.744Z,100806.56
2023-03-04T08:54:15.576Z,100809.72
2023-03-04T08:57:17.639Z,100803.66
2023-03-04T09:00:21.262Z,100763.84
2023-03-04T09:03:23.199Z,100794.22
2023-03-04T09:06:25.172Z,100799.03
2023-03-04T09:09:27.252Z,100793.16
2023-03-04T09:12:29.140Z,100787.69
2023-03-04T09:15:31.169Z,100773.44
2023-03-04T09:18:33.156Z,100766.78
2023-03-04T09:21:35.172Z,100759.25
2023-03-04T09:24:45.256Z,100755.28
2023-03-04T09:27:47.692Z,100761.13
2023-03-04T09:30:49.735Z,100749.81
2023-03-04T09:34:00.768Z,100739.81
2023-03-04T09:37:03.144Z,100736.22
2023-03-04T09:40:08.276Z,100729.94
2023-03-04T09:43:21.581Z,100721.28
2023-03-04T09:46:45.538Z,100719.69
2023-03-04T09:50:17.511Z,100705.50
2023-03-04T09:53:26.319Z,100697.94
2023-03-04T09:56:28.637Z,100694.19
2023-03-04T09:59:41.472Z,100692.31
2023-03-04T10:02:52.579Z,100683.94
2023-03-04T10:05:59.131Z,100681.63
2023-03-04T10:09:46.753Z,100662.41
2023-03-04T10:12:51.309Z,100663.84
2023-03-04T10:15:54.455Z,100663.44
2023-03-04T10:18:58.408Z,100659.88
2023-03-04T10:22:00.609Z,100651.97
2023-03-04T10:25:16.223Z,100637.28
2023-03-04T10:28:20.258Z,100642.91
2023-03-04T10:31:33.271Z,100631.84
2023-03-04T10:34:35.254Z,100617.19
2023-03-04T10:37:46.159Z,100620.56
2023-03-04T10:40:48.198Z,100607.38
2023-03-04T10:44:11.560Z,100598.38
2023-03-04T10:47:17.006Z,100595.28
2023-03-04T10:50:28.155Z,100589.84
2023-03-04T10:53:37.266Z,100579.41
2023-03-04T10:56:45.578Z,100573.31
2023-03-04T10:59:57.142Z,100554.91
2023-03-04T11:03:35.877Z,100570.19
2023-03-04T11:06:41.728Z,100542.81
2023-03-04T11:09:44.973Z,100553.69
2023-03-04T11:13:01.035Z,100550.75
2023-03-04T11:16:06.243Z,100546.38
2023-03-04T11:19:16.544Z,100527.97
2023-03-04T11:22:29.387Z,100534.44
2023-03-04T11:25:36.010Z,100513.31
2023-03-04T11:28:43.994Z,100511.63
2023-03-04T11:31:48.831Z,100503.94
2023-03-04T11:35:01.447Z,100492.59
2023-03-04T11:38:15.722Z,100481.13
2023-03-04T11:41:25.816Z,100486.81
2023-03-04T11:44:27.797Z,100483.44
2023-03-04T11:47:44.136Z,100476.75
2023-03-04T11:50:53.977Z,100469.47
2023-03-04T11:53:56.157Z,100476.56
2023-03-04T11:57:07.009Z,100461.94
2023-03-04T12:00:36.166Z,100454.63
2023-03-04T12:03:50.703Z,100445.03
2023-03-04T12:07:26.442Z,100446.06
2023-03-04T12:10:31.524Z,100440.19
2023-03-04T12:13:43.576Z,100442.69
2023-03-04T12:17:12.957Z,100446.03
2023-03-04T12:20:19.819Z,100445.56
2023-03-04T12:24:05.328Z,100438.06
2023-03-04T12:27:12.960Z,100428.66
2023-03-04T12:30:50.078Z,100421.16
2023-03-04T12:34:10.231Z,100401.75
2023-03-04T12:37:15.763Z,100411.56
2023-03-04T12:40:23.874Z,100403.59
2023-03-04T12:43:47.821Z,100395.44
2023-03-04T12:47:20.344Z,100398.81
2023-03-04T12:50:37.111Z,100390.88
2023-03-04T12:53:47.749Z,100375.81
2023-03-04T12:56:52.727Z,100378.56
2023-03-04T13:00:23.469Z,100372.13
2023-03-04T13:03:28.214Z,100367.94
2023-03-04T13:06:58.521Z,100362.69
2023-03-04T13:10:11.495Z,100353.28
2023-03-04T13:13:41.419Z,100348.69
2023-03-04T13:16:49.953Z,100332.38
2023-03-04T13:19:52.673Z,100334.47
2023-03-04T13:23:01.961Z,100324.88
2023-03-04T13:26:03.823Z,100317.38
2023-03-04T13:29:34.362Z,100323.06
2023-03-04T13:32:38.674Z,100315.94
2023-03-04T13:35:47.182Z,100296.50
2023-03-04T13:39:00.686Z,100305.28
2023-03-04T13:42:03.656Z,100260.91
2023-03-04T13:45:25.817Z,100292.81
2023-03-04T13:48:36.465Z,100288.84
2023-03-04T13:51:43.147Z,100269.84
2023-03-04T13:54:45.229Z,100276.69
2023-03-04T13:57:51.360Z,100265.66
2023-03-04T14:00:55.721Z,100269.38
2023-03-04T14:03:59.840Z,100252.06
2023-03-04T14:07:18.345Z,100250.16
2023-03-04T14:10:24.824Z,100256.66
2023-03-04T14:13:27.786Z,100250.81
2023-03-04T14:16:35.935Z,100257.53
2023-03-04T14:19:46.278Z,100248.13
2023-03-04T14:22:48.221Z,100253.97
2023-03-04T14:25:50.388Z,100259.34
2023-03-04T14:28:57.463Z,100240.41
2023-03-04T14:32:00.409Z,100239.13
2023-03-04T14:35:06.579Z,100242.34
2023-03-04T14:38:25.134Z,100227.28
2023-03-04T14:41:34.328Z,100222.25
2023-03-04T14:44:48.780Z,100222.66
2023-03-04T14:47:54.922Z,100219.69
2023-03-04T14:50:58.578Z,100225.75
2023-03-04T14:54:00.632Z,100221.75
2023-03-04T14:57:26.127Z,100224.00
2023-03-04T15:00:30.918Z,100222.09
2023-03-04T15:03:34.500Z,100218.13
2023-03-04T15:06:49.096Z,100218.34
2023-03-04T15:09:55.819Z,100217.31
2023-03-04T15:13:01.608Z,100221.25
2023-03-04T15:16:03.933Z,100198.28
2023-03-04T15:19:25.616Z,100212.66
2023-03-04T15:22:27.837Z,100202.19
2023-03-04T15:25:30.711Z,100201.97
2023-03-04T15:28:37.470Z,100209.28
2023-03-04T15:31:39.491Z,100200.97
2023-03-04T15:34:41.445Z,100198.28
2023-03-04T15:37:44.891Z,100213.97
2023-03-04T15:40:47.170Z,100208.56
2023-03-04T15:43:51.140Z,100212.50
2023-03-04T15:46:53.138Z,100211.47
2023-03-04T15:49:55.141Z,100208.09
2023-03-04T15:53:00.258Z,100207.13
2023-03-04T15:56:03.943Z,100204.53
2023-03-04T15:59:17.087Z,100200.38
2023-03-04T16:02:24.717Z,100206.78
2023-03-04T16:05:26.903Z,100203.38
2023-03-04T16:08:31.034Z,100216.09
2023-03-04T16:11:46.535Z,100200.19
2023-03-04T16:14:49.382Z,100194.25
2023-03-04T16:17:54.648Z,100208.69
2023-03-04T16:20:57.097Z,100189.22
2023-03-04T16:23:59.522Z,100195.19
2023-03-04T16:27:01.592Z,100210.44
2023-03-04T16:30:04.678Z,100210.13
2023-03-04T16:33:07.627Z,100189.69
2023-03-04T16:36:18.937Z,100188.44
2023-03-04T16:39:24.392Z,100207.09
2023-03-04T16:42:27.334Z,100209.69
2023-03-04T16:45:30.979Z,100212.78
2023-03-04T16:48:33.019Z,100207.06
2023-03-04T16:51:40.444Z,100218.44
2023-03-04T16:54:42.490Z,100224.28
2023-03-04T16:57:44.669Z,100207.97
2023-03-04T17:00:46.943Z,100206.38
2023-03-04T17:03:49.004Z,100217.75
2023-03-04T17:06:53.112Z,100217.97
2023-03-04T17:09:55.288Z,100213.72
2023-03-04T17:12:57.798Z,100235.72
2023-03-04T17:16:08.908Z,100224.06
2023-03-04T17:19:13.641Z,100232.88
2023-03-04T17:22:21.603Z,100226.16
2023-03-04T17:25:26.584Z,100248.94
2023-03-04T17:28:29.639Z,100223.00
2023-03-04T17:31:36.721Z,100223.84
2023-03-04T17:34:43.413Z,100231.94
2023-03-04T17:37:45.440Z,100232.97
2023-03-04T17:40:48.227Z,100228.09
2023-03-04T17:43:55.312Z,100223.59
2023-03-04T17:46:58.299Z,100238.53
2023-03-04T17:50:06.746Z,100209.69
2023-03-04T17:53:08.772Z,100236.66
2023-03-04T17:56:12.826Z,100230.28
2023-03-04T17:59:16.915Z,100240.59
2023-03-04T18:02:30.739Z,100232.28
2023-03-04T18:05:33.586Z,100237.75
2023-03-04T18:08:42.949Z,100232.56
2023-03-04T18:11:45.935Z,100241.38
2023-03-04T18:14:48.297Z,100258.13
2023-03-04T18:17:50.449Z,100251.25
2023-03-04T18:21:03.202Z,100252.28
2023-03-04T18:24:05.755Z,100250.66
2023-03-04T18:27:10.419Z,100249.47
2023-03-04T18:30:27.300Z,100245.72
2023-03-04T18:33:37.127Z,100263.25
2023-03-04T18:36:40.187Z,100248.69
2023-03-04T18:39:42.322Z,100234.16
2023-03-04T18:42:48.729Z,100247.09
2023-03-04T18:46:12.648Z,100261.91
2023-03-04T18:49:16.429Z,100262.56
2023-03-04T18:52:20.128Z,100253.19
2023-03-04T18:55:34.313Z,100263.63
2023-03-04T18:58:40.237Z,100257.13
2023-03-04T19:02:02.656Z,100248.63
2023-03-04T19:05:28.692Z,100273.63
2023-03-04T19:08:31.099Z,100278.88
2023-03-04T19:11:34.353Z,100280.72
2023-03-04T19:14:36.419Z,100254.22
2023-03-04T19:17:39.353Z,100291.56
2023-03-04T19:20:42.912Z,100293.84
2023-03-04T19:23:44.829Z,100297.16
2023-03-04T19:26:46.907Z,100294.41
2023-03-04T19:29:49.383Z,100300.00
2023-03-04T19:32:51.502Z,100301.63
2023-03-04T19:35:53.709Z,100296.38
2023-03-04T19:38:55.796Z,100317.44
2023-03-04T19:41:57.993Z,100317.19
2023-03-04T19:45:01.986Z,100306.13
2023-03-04T19:48:04.393Z,100296.06
2023-03-04T19:51:19.964Z,100313.19
2023-03-04T19:54:22.089Z,100283.09
2023-03-04T19:57:28.217Z,100320.03
2023-03-04T20:00:30.350Z,100321.28
2023-03-04T20:03:33.053Z,100322.94
2023-03-04T20:06:40.186Z,100332.81
2023-03-04T20:09:42.486Z,100325.03
2023-03-04T20:12:44.714Z,100324.59
2023-03-04T20:15:46.809Z,100320.44
2023-03-04T20:18:50.547Z,100323.56
2023-03-04T20:21:52.789Z,100317.25
2023-03-04T20:24:55.663Z,100315.75
2023-03-04T20:27:58.916Z,100320.09
2023-03-04T20:31:27.253Z,100328.84
2023-03-04T20:34:29.359Z,100329.56
2023-03-04T20:37:31.834Z,100352.19
2023-03-04T20:40:36.016Z,100379.91
2023-03-04T20:43:38.713Z,100381.84
2023-03-04T20:46:46.303Z,100379.91
2023-03-04T20:49:48.865Z,100374.19
2023-03-04T20:52:53.762Z,100388.44
2023-03-04T20:55:55.833Z,100393.91
2023-03-04T20:59:00.433Z,100406.38
2023-03-04T21:02:02.617Z,100403.28
2023-03-04T21:05:05.025Z,100408.28
2023-03-04T21:08:07.044Z,100426.63
2023-03-04T21:11:16.108Z,100432.09
2023-03-04T21:14:24.438Z,100437.03
2023-03-04T21:17:26.463Z,100462.19
2023-03-04T21:20:28.521Z,100462.06
2023-03-04T21:23:30.627Z,100461.47
2023-03-04T21:26:34.976Z,100463.31
2023-03-04T21:29:37.889Z,100476.44
2023-03-04T21:32:40.260Z,100483.84
2023-03-04T21:35:42.416Z,100493.63
2023-03-04T21:38:45.677Z,100499.50
2023-03-04T21:41:48.273Z,100504.78
2023-03-04T21:44:51.611Z,100520.88
2023-03-04T21:47:53.929Z,100530.22
2023-03-04T21:51:04.709Z,100528.66
2023-03-04T21:54:07.998Z,100540.50
2023-03-04T21:57:10.065Z,100509.34
2023-03-04T22:00:14.532Z,100542.72
2023-03-04T22:03:16.716Z,100548.34
2023-03-04T22:06:22.745Z,100534.81
2023-03-04T22:09:25.952Z,100539.78
2023-03-04T22:12:28.231Z,100538.53
2023-03-04T22:15:30.180Z,100562.34
2023-03-04T22:18:32.865Z,100563.72
2023-03-04T22:21:34.930Z,100559.50
2023-03-04T22:24:36.977Z,100568.41
2023-03-04T22:27:39.060Z,100571.81
2023-03-04T22:30:41.245Z,100558.78
2023-03-04T22:33:43.941Z,100569.25
2023-03-04T22:36:47.370Z,100551.53
2023-03-04T22:39:49.404Z,100553.88
2023-03-04T22:42:52.507Z,100560.97
2023-03-04T22:45:54.596Z,100564.03
2023-03-04T22:48:59.858Z,100578.72
2023-03-04T22:52:01.903Z,100585.63
2023-03-04T22:55:05.591Z,100577.81
2023-03-04T22:58:07.909Z,100590.03
2023-03-04T23:01:10.530Z,100575.59
2023-03-04T23:04:12.654Z,100583.31
2023-03-04T23:07:14.723Z,100584.34
2023-03-04T23:10:24.872Z,100585.16
2023-03-04T23:13:27.260Z,100589.75
2023-03-04T23:16:29.400Z,100580.63
2023-03-04T23:19:31.491Z,100589.41
2023-03-04T23:22:34.096Z,100595.81
2023-03-04T23:25:37.189Z,100595.91
2023-03-04T23:28:39.196Z,100600.28
2023-03-04T23:31:44.508Z,100596.28
2023-03-04T23:34:46.863Z,100616.97
2023-03-04T23:37:50.150Z,100597.56
2023-03-04T23:40:52.230Z,100614.16
2023-03-04T23:43:55.910Z,100612.94
2023-03-04T23:46:58.235Z,100617.50
2023-03-04T23:50:00.714Z,100622.63
2023-03-04T23:53:03.099Z,100621.63
2023-03-04T23:56:12.990Z,100613.66
2023-03-04T23:59:15.049Z,100613.69
